sensor_id;sensor_type;location;lat;lon;timestamp;P1;durP1;ratioP1;P2;durP2;ratioP2
64868;SDS011;51349;52.424;10.840;2022-12-07T00:03:19;19.63;;;11.57;;
64868;SDS011;51349;52.424;10.840;2022-12-07T00:08:20;25.53;;;14.60;;
64868;SDS011;51349;52.424;10.840;2022-12-07T00:13:20;23.43;;;14.50;;
64868;SDS011;51349;52.424;10.840;2022-12-07T00:18:21;28.50;;;16.00;;
64868;SDS011;51349;52.424;10.840;2022-12-07T00:23:22;24.93;;;14.97;;
64868;SDS011;51349;52.424;10.840;2022-12-07T00:28:22;26.00;;;13.97;;
64868;SDS011;51349;52.424;10.840;2022-12-07T00:33:23;24.80;;;15.10;;
64868;SDS011;51349;52.424;10.840;2022-12-07T00:38:23;29.03;;;16.43;;
64868;SDS011;51349;52.424;10.840;2022-12-07T00:43:25;27.63;;;16.13;;
64868;SDS011;51349;52.424;10.840;2022-12-07T00:48:25;29.43;;;16.83;;
64868;SDS011;51349;52.424;10.840;2022-12-07T00:53:26;33.70;;;17.30;;
64868;SDS011;51349;52.424;10.840;2022-12-07T00:58:27;32.17;;;17.97;;
64868;SDS011;51349;52.424;10.840;2022-12-07T01:03:28;36.67;;;17.63;;
64868;SDS011;51349;52.424;10.840;2022-12-07T01:08:29;36.87;;;20.83;;
64868;SDS011;51349;52.424;10.840;2022-12-07T01:13:30;32.20;;;18.43;;
64868;SDS011;51349;52.424;10.840;2022-12-07T01:18:32;29.70;;;16.43;;
64868;SDS011;51349;52.424;10.840;2022-12-07T01:23:35;31.47;;;16.57;;
64868;SDS011;51349;52.424;10.840;2022-12-07T01:28:36;34.17;;;18.10;;
64868;SDS011;51349;52.424;10.840;2022-12-07T01:33:37;33.77;;;18.03;;
64868;SDS011;51349;52.424;10.840;2022-12-07T01:38:39;31.13;;;17.13;;
64868;SDS011;51349;52.424;10.840;2022-12-07T01:49:16;36.67;;;19.27;;
64868;SDS011;51349;52.424;10.840;2022-12-07T01:54:21;34.80;;;18.60;;
64868;SDS011;51349;52.424;10.840;2022-12-07T01:59:22;33.37;;;17.77;;
64868;SDS011;51349;52.424;10.840;2022-12-07T02:04:26;34.23;;;18.03;;
64868;SDS011;51349;52.424;10.840;2022-12-07T02:09:26;35.60;;;18.17;;
64868;SDS011;51349;52.424;10.840;2022-12-07T02:14:27;36.77;;;18.47;;
64868;SDS011;51349;52.424;10.840;2022-12-07T02:25:30;31.50;;;17.33;;
64868;SDS011;51349;52.424;10.840;2022-12-07T02:30:47;34.40;;;17.77;;
64868;SDS011;51349;52.424;10.840;2022-12-07T02:35:51;33.80;;;17.87;;
64868;SDS011;51349;52.424;10.840;2022-12-07T02:41:05;36.80;;;20.10;;
64868;SDS011;51349;52.424;10.840;2022-12-07T02:46:29;40.70;;;21.63;;
64868;SDS011;51349;52.424;10.840;2022-12-07T02:51:38;39.50;;;20.27;;
64868;SDS011;51349;52.424;10.840;2022-12-07T03:07:29;44.40;;;22.60;;
64868;SDS011;51349;52.424;10.840;2022-12-07T03:17:42;40.40;;;23.00;;
64868;SDS011;51349;52.424;10.840;2022-12-07T03:22:45;37.80;;;21.10;;
64868;SDS011;51349;52.424;10.840;2022-12-07T03:27:54;36.30;;;20.37;;
64868;SDS011;51349;52.424;10.840;2022-12-07T03:33:04;30.80;;;18.47;;
64868;SDS011;51349;52.424;10.840;2022-12-07T03:38:19;30.37;;;18.60;;
64868;SDS011;51349;52.424;10.840;2022-12-07T03:43:28;36.40;;;19.03;;
64868;SDS011;51349;52.424;10.840;2022-12-07T03:59:18;26.67;;;15.87;;
64868;SDS011;51349;52.424;10.840;2022-12-07T04:04:20;22.10;;;13.33;;
64868;SDS011;51349;52.424;10.840;2022-12-07T04:09:22;23.27;;;14.17;;
64868;SDS011;51349;52.424;10.840;2022-12-07T04:14:26;23.77;;;14.70;;
64868;SDS011;51349;52.424;10.840;2022-12-07T04:19:29;19.57;;;13.07;;
64868;SDS011;51349;52.424;10.840;2022-12-07T04:24:31;14.67;;;10.87;;
64868;SDS011;51349;52.424;10.840;2022-12-07T04:29:33;16.63;;;10.90;;
64868;SDS011;51349;52.424;10.840;2022-12-07T04:34:33;16.03;;;11.50;;
64868;SDS011;51349;52.424;10.840;2022-12-07T04:39:34;16.43;;;11.57;;
64868;SDS011;51349;52.424;10.840;2022-12-07T04:44:35;14.20;;;10.37;;
64868;SDS011;51349;52.424;10.840;2022-12-07T04:49:35;14.13;;;10.03;;
64868;SDS011;51349;52.424;10.840;2022-12-07T04:54:36;15.97;;;8.53;;
64868;SDS011;51349;52.424;10.840;2022-12-07T04:59:36;12.97;;;9.97;;
64868;SDS011;51349;52.424;10.840;2022-12-07T05:04:37;11.73;;;8.60;;
64868;SDS011;51349;52.424;10.840;2022-12-07T05:09:38;15.50;;;8.70;;
64868;SDS011;51349;52.424;10.840;2022-12-07T05:14:38;16.33;;;10.43;;
64868;SDS011;51349;52.424;10.840;2022-12-07T05:19:39;12.70;;;8.87;;
64868;SDS011;51349;52.424;10.840;2022-12-07T05:24:39;14.13;;;9.23;;
64868;SDS011;51349;52.424;10.840;2022-12-07T05:29:40;10.30;;;7.57;;
64868;SDS011;51349;52.424;10.840;2022-12-07T05:34:40;11.30;;;7.73;;
64868;SDS011;51349;52.424;10.840;2022-12-07T05:39:42;10.87;;;8.40;;
64868;SDS011;51349;52.424;10.840;2022-12-07T05:44:43;9.87;;;7.47;;
64868;SDS011;51349;52.424;10.840;2022-12-07T05:49:45;11.47;;;7.77;;
64868;SDS011;51349;52.424;10.840;2022-12-07T05:54:46;9.40;;;7.40;;
64868;SDS011;51349;52.424;10.840;2022-12-07T05:59:46;11.23;;;7.90;;
64868;SDS011;51349;52.424;10.840;2022-12-07T06:04:50;12.43;;;8.27;;
64868;SDS011;51349;52.424;10.840;2022-12-07T06:09:50;10.80;;;7.47;;
64868;SDS011;51349;52.424;10.840;2022-12-07T06:14:51;10.17;;;8.00;;
64868;SDS011;51349;52.424;10.840;2022-12-07T06:19:51;10.03;;;7.80;;
64868;SDS011;51349;52.424;10.840;2022-12-07T06:24:53;9.53;;;7.67;;
64868;SDS011;51349;52.424;10.840;2022-12-07T06:29:53;9.63;;;7.40;;
64868;SDS011;51349;52.424;10.840;2022-12-07T06:34:54;12.70;;;7.90;;
64868;SDS011;51349;52.424;10.840;2022-12-07T06:39:55;10.40;;;7.30;;
64868;SDS011;51349;52.424;10.840;2022-12-07T06:44:56;11.17;;;7.43;;
64868;SDS011;51349;52.424;10.840;2022-12-07T06:49:56;10.27;;;7.67;;
64868;SDS011;51349;52.424;10.840;2022-12-07T06:54:57;12.10;;;7.03;;
64868;SDS011;51349;52.424;10.840;2022-12-07T06:59:58;11.40;;;7.23;;
64868;SDS011;51349;52.424;10.840;2022-12-07T07:04:59;8.33;;;7.07;;
64868;SDS011;51349;52.424;10.840;2022-12-07T07:09:59;9.80;;;7.33;;
64868;SDS011;51349;52.424;10.840;2022-12-07T07:15:00;6.93;;;5.87;;
64868;SDS011;51349;52.424;10.840;2022-12-07T07:20:01;7.13;;;6.43;;
64868;SDS011;51349;52.424;10.840;2022-12-07T07:25:01;9.10;;;6.27;;
64868;SDS011;51349;52.424;10.840;2022-12-07T07:30:02;10.47;;;6.17;;
64868;SDS011;51349;52.424;10.840;2022-12-07T07:35:04;6.97;;;5.80;;
64868;SDS011;51349;52.424;10.840;2022-12-07T07:40:05;7.13;;;4.87;;
64868;SDS011;51349;52.424;10.840;2022-12-07T07:45:06;6.53;;;5.60;;
64868;SDS011;51349;52.424;10.840;2022-12-07T07:50:15;8.27;;;6.80;;
64868;SDS011;51349;52.424;10.840;2022-12-07T07:55:17;8.37;;;7.00;;
64868;SDS011;51349;52.424;10.840;2022-12-07T08:00:17;13.37;;;8.17;;
64868;SDS011;51349;52.424;10.840;2022-12-07T08:05:18;7.63;;;6.90;;
64868;SDS011;51349;52.424;10.840;2022-12-07T08:10:19;28.30;;;17.83;;
64868;SDS011;51349;52.424;10.840;2022-12-07T08:15:20;34.00;;;18.20;;
64868;SDS011;51349;52.424;10.840;2022-12-07T08:20:21;33.27;;;19.67;;
64868;SDS011;51349;52.424;10.840;2022-12-07T08:25:21;9.97;;;7.57;;
64868;SDS011;51349;52.424;10.840;2022-12-07T08:30:22;8.03;;;6.43;;
64868;SDS011;51349;52.424;10.840;2022-12-07T08:35:23;7.00;;;6.30;;
64868;SDS011;51349;52.424;10.840;2022-12-07T08:40:24;11.17;;;7.40;;
64868;SDS011;51349;52.424;10.840;2022-12-07T08:45:25;9.70;;;6.17;;
64868;SDS011;51349;52.424;10.840;2022-12-07T08:50:25;7.47;;;6.03;;
64868;SDS011;51349;52.424;10.840;2022-12-07T08:55:31;7.27;;;5.90;;
64868;SDS011;51349;52.424;10.840;2022-12-07T09:00:33;5.23;;;4.00;;
64868;SDS011;51349;52.424;10.840;2022-12-07T09:05:34;9.33;;;7.00;;
64868;SDS011;51349;52.424;10.840;2022-12-07T09:10:37;9.00;;;6.23;;
64868;SDS011;51349;52.424;10.840;2022-12-07T09:15:38;9.17;;;6.97;;
64868;SDS011;51349;52.424;10.840;2022-12-07T09:20:39;13.43;;;9.47;;
64868;SDS011;51349;52.424;10.840;2022-12-07T09:25:40;10.73;;;6.13;;
64868;SDS011;51349;52.424;10.840;2022-12-07T09:30:47;6.13;;;5.53;;
64868;SDS011;51349;52.424;10.840;2022-12-07T09:35:48;7.70;;;6.10;;
64868;SDS011;51349;52.424;10.840;2022-12-07T09:40:50;12.67;;;8.30;;
64868;SDS011;51349;52.424;10.840;2022-12-07T09:45:51;6.63;;;5.80;;
64868;SDS011;51349;52.424;10.840;2022-12-07T09:50:54;8.13;;;6.33;;
64868;SDS011;51349;52.424;10.840;2022-12-07T09:55:58;8.47;;;5.60;;
64868;SDS011;51349;52.424;10.840;2022-12-07T10:01:00;5.80;;;4.90;;
64868;SDS011;51349;52.424;10.840;2022-12-07T10:06:11;4.80;;;3.50;;
64868;SDS011;51349;52.424;10.840;2022-12-07T10:11:13;4.53;;;3.70;;
64868;SDS011;51349;52.424;10.840;2022-12-07T10:21:25;6.17;;;3.60;;
64868;SDS011;51349;52.424;10.840;2022-12-07T10:26:33;4.57;;;3.60;;
64868;SDS011;51349;52.424;10.840;2022-12-07T10:31:35;42.67;;;22.00;;
64868;SDS011;51349;52.424;10.840;2022-12-07T10:36:39;10.03;;;8.00;;
64868;SDS011;51349;52.424;10.840;2022-12-07T10:41:59;6.10;;;5.17;;
64868;SDS011;51349;52.424;10.840;2022-12-07T10:52:39;3.50;;;3.27;;
64868;SDS011;51349;52.424;10.840;2022-12-07T10:58:37;4.70;;;4.23;;
64868;SDS011;51349;52.424;10.840;2022-12-07T11:03:37;5.67;;;4.10;;
64868;SDS011;51349;52.424;10.840;2022-12-07T11:09:04;6.20;;;3.67;;
64868;SDS011;51349;52.424;10.840;2022-12-07T11:24:45;4.03;;;3.20;;
64868;SDS011;51349;52.424;10.840;2022-12-07T11:41:09;2.90;;;2.67;;
64868;SDS011;51349;52.424;10.840;2022-12-07T11:46:13;4.73;;;2.60;;
64868;SDS011;51349;52.424;10.840;2022-12-07T11:51:16;4.57;;;2.53;;
64868;SDS011;51349;52.424;10.840;2022-12-07T11:56:21;5.17;;;2.20;;
64868;SDS011;51349;52.424;10.840;2022-12-07T12:06:35;2.97;;;2.10;;
64868;SDS011;51349;52.424;10.840;2022-12-07T12:11:40;7.93;;;3.67;;
64868;SDS011;51349;52.424;10.840;2022-12-07T12:22:37;3.40;;;2.30;;
64868;SDS011;51349;52.424;10.840;2022-12-07T12:27:40;2.90;;;2.23;;
64868;SDS011;51349;52.424;10.840;2022-12-07T12:32:47;4.70;;;2.30;;
64868;SDS011;51349;52.424;10.840;2022-12-07T12:37:48;2.40;;;2.20;;
64868;SDS011;51349;52.424;10.840;2022-12-07T12:48:00;3.67;;;2.63;;
64868;SDS011;51349;52.424;10.840;2022-12-07T12:53:12;4.13;;;2.43;;
64868;SDS011;51349;52.424;10.840;2022-12-07T13:03:27;4.47;;;2.50;;
64868;SDS011;51349;52.424;10.840;2022-12-07T13:08:30;5.33;;;2.27;;
64868;SDS011;51349;52.424;10.840;2022-12-07T13:13:31;3.60;;;2.40;;
64868;SDS011;51349;52.424;10.840;2022-12-07T13:18:37;3.13;;;2.20;;
64868;SDS011;51349;52.424;10.840;2022-12-07T13:44:51;2.10;;;2.00;;
64868;SDS011;51349;52.424;10.840;2022-12-07T13:49:53;2.97;;;1.90;;
64868;SDS011;51349;52.424;10.840;2022-12-07T13:55:11;3.57;;;1.87;;
64868;SDS011;51349;52.424;10.840;2022-12-07T14:00:22;2.40;;;1.47;;
64868;SDS011;51349;52.424;10.840;2022-12-07T14:05:31;3.00;;;1.77;;
64868;SDS011;51349;52.424;10.840;2022-12-07T14:10:34;1.53;;;1.43;;
64868;SDS011;51349;52.424;10.840;2022-12-07T14:15:41;1.60;;;1.50;;
64868;SDS011;51349;52.424;10.840;2022-12-07T14:20:42;4.23;;;2.13;;
64868;SDS011;51349;52.424;10.840;2022-12-07T14:25:46;10.30;;;8.50;;
64868;SDS011;51349;52.424;10.840;2022-12-07T14:30:48;11.23;;;7.33;;
64868;SDS011;51349;52.424;10.840;2022-12-07T14:35:49;5.47;;;2.87;;
64868;SDS011;51349;52.424;10.840;2022-12-07T14:40:50;5.73;;;3.70;;
64868;SDS011;51349;52.424;10.840;2022-12-07T14:45:52;6.80;;;3.57;;
64868;SDS011;51349;52.424;10.840;2022-12-07T14:50:53;3.23;;;2.20;;
64868;SDS011;51349;52.424;10.840;2022-12-07T14:55:53;2.67;;;1.90;;
64868;SDS011;51349;52.424;10.840;2022-12-07T15:00:54;4.07;;;2.63;;
64868;SDS011;51349;52.424;10.840;2022-12-07T15:05:54;2.97;;;1.80;;
64868;SDS011;51349;52.424;10.840;2022-12-07T15:10:55;2.73;;;1.53;;
64868;SDS011;51349;52.424;10.840;2022-12-07T15:15:56;1.93;;;1.47;;
64868;SDS011;51349;52.424;10.840;2022-12-07T15:20:56;2.93;;;1.30;;
64868;SDS011;51349;52.424;10.840;2022-12-07T15:25:57;1.63;;;1.30;;
64868;SDS011;51349;52.424;10.840;2022-12-07T15:30:58;2.80;;;1.77;;
64868;SDS011;51349;52.424;10.840;2022-12-07T15:35:58;2.90;;;1.23;;
64868;SDS011;51349;52.424;10.840;2022-12-07T15:40:59;3.27;;;0.73;;
64868;SDS011;51349;52.424;10.840;2022-12-07T15:45:59;1.63;;;1.50;;
64868;SDS011;51349;52.424;10.840;2022-12-07T15:51:03;4.23;;;1.40;;
64868;SDS011;51349;52.424;10.840;2022-12-07T15:56:06;4.80;;;0.90;;
64868;SDS011;51349;52.424;10.840;2022-12-07T16:01:11;3.00;;;1.10;;
64868;SDS011;51349;52.424;10.840;2022-12-07T16:06:15;1.93;;;1.10;;
64868;SDS011;51349;52.424;10.840;2022-12-07T16:11:16;2.00;;;1.17;;
64868;SDS011;51349;52.424;10.840;2022-12-07T16:16:17;2.43;;;2.20;;
64868;SDS011;51349;52.424;10.840;2022-12-07T16:21:21;1.70;;;1.60;;
64868;SDS011;51349;52.424;10.840;2022-12-07T16:26:21;2.50;;;1.53;;
64868;SDS011;51349;52.424;10.840;2022-12-07T16:31:23;2.10;;;1.80;;
64868;SDS011;51349;52.424;10.840;2022-12-07T16:36:25;3.93;;;3.20;;
64868;SDS011;51349;52.424;10.840;2022-12-07T16:41:27;2.80;;;2.47;;
64868;SDS011;51349;52.424;10.840;2022-12-07T16:46:27;3.80;;;3.27;;
64868;SDS011;51349;52.424;10.840;2022-12-07T16:51:28;4.63;;;3.40;;
64868;SDS011;51349;52.424;10.840;2022-12-07T16:56:29;2.97;;;2.77;;
64868;SDS011;51349;52.424;10.840;2022-12-07T17:01:29;2.70;;;2.20;;
64868;SDS011;51349;52.424;10.840;2022-12-07T17:06:31;4.17;;;2.30;;
64868;SDS011;51349;52.424;10.840;2022-12-07T17:11:31;2.80;;;2.23;;
64868;SDS011;51349;52.424;10.840;2022-12-07T17:16:32;2.83;;;2.47;;
64868;SDS011;51349;52.424;10.840;2022-12-07T17:21:35;2.87;;;2.47;;
64868;SDS011;51349;52.424;10.840;2022-12-07T17:26:35;2.67;;;2.47;;
64868;SDS011;51349;52.424;10.840;2022-12-07T17:31:36;3.63;;;2.50;;
64868;SDS011;51349;52.424;10.840;2022-12-07T17:36:37;2.83;;;2.63;;
64868;SDS011;51349;52.424;10.840;2022-12-07T17:41:38;3.20;;;2.50;;
64868;SDS011;51349;52.424;10.840;2022-12-07T17:46:58;3.73;;;2.67;;
64868;SDS011;51349;52.424;10.840;2022-12-07T17:52:01;2.93;;;2.03;;
64868;SDS011;51349;52.424;10.840;2022-12-07T17:57:20;2.63;;;2.33;;
64868;SDS011;51349;52.424;10.840;2022-12-07T18:02:20;2.60;;;2.37;;
64868;SDS011;51349;52.424;10.840;2022-12-07T18:07:21;3.13;;;2.00;;
64868;SDS011;51349;52.424;10.840;2022-12-07T18:12:22;3.37;;;1.90;;
64868;SDS011;51349;52.424;10.840;2022-12-07T18:17:23;2.33;;;2.10;;
64868;SDS011;51349;52.424;10.840;2022-12-07T18:22:23;2.63;;;2.07;;
64868;SDS011;51349;52.424;10.840;2022-12-07T18:27:24;2.77;;;2.00;;
64868;SDS011;51349;52.424;10.840;2022-12-07T18:32:24;2.73;;;2.20;;
64868;SDS011;51349;52.424;10.840;2022-12-07T18:37:25;2.60;;;2.20;;
64868;SDS011;51349;52.424;10.840;2022-12-07T18:42:27;3.57;;;1.97;;
64868;SDS011;51349;52.424;10.840;2022-12-07T18:47:27;1.87;;;1.73;;
64868;SDS011;51349;52.424;10.840;2022-12-07T18:52:28;1.93;;;1.70;;
64868;SDS011;51349;52.424;10.840;2022-12-07T18:57:34;4.93;;;2.53;;
64868;SDS011;51349;52.424;10.840;2022-12-07T19:02:35;3.47;;;2.53;;
64868;SDS011;51349;52.424;10.840;2022-12-07T19:07:35;2.57;;;2.10;;
64868;SDS011;51349;52.424;10.840;2022-12-07T19:12:36;5.33;;;3.20;;
64868;SDS011;51349;52.424;10.840;2022-12-07T19:17:37;3.40;;;2.73;;
64868;SDS011;51349;52.424;10.840;2022-12-07T19:22:38;4.00;;;3.17;;
64868;SDS011;51349;52.424;10.840;2022-12-07T19:27:39;4.47;;;3.00;;
64868;SDS011;51349;52.424;10.840;2022-12-07T19:32:39;4.40;;;3.17;;
64868;SDS011;51349;52.424;10.840;2022-12-07T19:37:40;3.43;;;2.97;;
64868;SDS011;51349;52.424;10.840;2022-12-07T19:42:41;5.97;;;3.30;;
64868;SDS011;51349;52.424;10.840;2022-12-07T19:47:41;3.90;;;3.50;;
64868;SDS011;51349;52.424;10.840;2022-12-07T19:52:42;3.67;;;2.90;;
64868;SDS011;51349;52.424;10.840;2022-12-07T19:57:42;3.87;;;2.87;;
64868;SDS011;51349;52.424;10.840;2022-12-07T20:02:43;3.40;;;2.67;;
64868;SDS011;51349;52.424;10.840;2022-12-07T20:07:44;5.50;;;3.20;;
64868;SDS011;51349;52.424;10.840;2022-12-07T20:12:45;4.93;;;2.63;;
64868;SDS011;51349;52.424;10.840;2022-12-07T20:18:04;3.30;;;2.60;;
64868;SDS011;51349;52.424;10.840;2022-12-07T20:23:04;2.80;;;2.50;;
64868;SDS011;51349;52.424;10.840;2022-12-07T20:28:05;4.13;;;2.40;;
64868;SDS011;51349;52.424;10.840;2022-12-07T20:33:05;3.17;;;2.27;;
64868;SDS011;51349;52.424;10.840;2022-12-07T20:38:07;3.27;;;2.10;;
64868;SDS011;51349;52.424;10.840;2022-12-07T20:43:08;3.73;;;1.90;;
64868;SDS011;51349;52.424;10.840;2022-12-07T20:48:08;2.97;;;1.80;;
64868;SDS011;51349;52.424;10.840;2022-12-07T20:53:09;2.37;;;2.17;;
64868;SDS011;51349;52.424;10.840;2022-12-07T20:58:10;2.67;;;2.43;;
64868;SDS011;51349;52.424;10.840;2022-12-07T21:03:10;2.97;;;2.67;;
64868;SDS011;51349;52.424;10.840;2022-12-07T21:08:11;2.97;;;2.63;;
64868;SDS011;51349;52.424;10.840;2022-12-07T21:13:12;3.00;;;2.80;;
64868;SDS011;51349;52.424;10.840;2022-12-07T21:18:12;3.83;;;3.13;;
64868;SDS011;51349;52.424;10.840;2022-12-07T21:23:13;9.33;;;3.30;;
64868;SDS011;51349;52.424;10.840;2022-12-07T21:28:13;4.50;;;3.57;;
64868;SDS011;51349;52.424;10.840;2022-12-07T21:33:14;4.30;;;3.47;;
64868;SDS011;51349;52.424;10.840;2022-12-07T21:38:17;5.47;;;3.10;;
64868;SDS011;51349;52.424;10.840;2022-12-07T21:43:18;4.50;;;3.97;;
64868;SDS011;51349;52.424;10.840;2022-12-07T21:48:19;5.37;;;4.60;;
64868;SDS011;51349;52.424;10.840;2022-12-07T21:53:20;10.87;;;6.40;;
64868;SDS011;51349;52.424;10.840;2022-12-07T21:58:21;6.87;;;5.33;;
64868;SDS011;51349;52.424;10.840;2022-12-07T22:03:21;7.27;;;5.73;;
64868;SDS011;51349;52.424;10.840;2022-12-07T22:08:22;8.50;;;6.73;;
64868;SDS011;51349;52.424;10.840;2022-12-07T22:13:22;11.80;;;6.97;;
64868;SDS011;51349;52.424;10.840;2022-12-07T22:18:43;8.57;;;6.90;;
64868;SDS011;51349;52.424;10.840;2022-12-07T22:23:43;13.43;;;8.17;;
64868;SDS011;51349;52.424;10.840;2022-12-07T22:28:44;12.60;;;8.20;;
64868;SDS011;51349;52.424;10.840;2022-12-07T22:33:45;13.57;;;8.93;;
64868;SDS011;51349;52.424;10.840;2022-12-07T22:38:46;10.23;;;7.90;;
64868;SDS011;51349;52.424;10.840;2022-12-07T22:43:47;11.70;;;8.63;;
64868;SDS011;51349;52.424;10.840;2022-12-07T22:48:47;10.27;;;8.17;;
64868;SDS011;51349;52.424;10.840;2022-12-07T22:53:48;13.57;;;8.80;;
64868;SDS011;51349;52.424;10.840;2022-12-07T22:58:50;12.07;;;8.67;;
64868;SDS011;51349;52.424;10.840;2022-12-07T23:03:50;13.03;;;8.90;;
64868;SDS011;51349;52.424;10.840;2022-12-07T23:08:51;12.17;;;8.80;;
64868;SDS011;51349;52.424;10.840;2022-12-07T23:13:54;12.43;;;9.07;;
64868;SDS011;51349;52.424;10.840;2022-12-07T23:18:55;14.20;;;8.80;;
64868;SDS011;51349;52.424;10.840;2022-12-07T23:23:56;18.17;;;11.13;;
64868;SDS011;51349;52.424;10.840;2022-12-07T23:28:56;14.63;;;10.23;;
64868;SDS011;51349;52.424;10.840;2022-12-07T23:33:57;14.90;;;10.27;;
64868;SDS011;51349;52.424;10.840;2022-12-07T23:38:57;14.83;;;10.07;;
64868;SDS011;51349;52.424;10.840;2022-12-07T23:43:59;14.53;;;11.13;;
64868;SDS011;51349;52.424;10.840;2022-12-07T23:49:00;16.17;;;10.87;;
64868;SDS011;51349;52.424;10.840;2022-12-07T23:54:02;15.70;;;10.27;;
64868;SDS011;51349;52.424;10.840;2022-12-07T23:59:03;16.97;;;10.90;;
